sensor_id;sensor_type;location;lat;lon;timestamp;P1;durP1;ratioP1;P2;durP2;ratioP2
6207;SDS011;3137;51.550;7.060;2023-07-29T00:02:20;2.67;;;2.67;;
6207;SDS011;3137;51.550;7.060;2023-07-29T00:04:47;2.47;;;2.47;;
6207;SDS011;3137;51.550;7.060;2023-07-29T00:07:13;2.90;;;2.90;;
6207;SDS011;3137;51.550;7.060;2023-07-29T00:09:40;3.13;;;3.13;;
6207;SDS011;3137;51.550;7.060;2023-07-29T00:12:06;3.50;;;3.20;;
6207;SDS011;3137;51.550;7.060;2023-07-29T00:14:33;3.80;;;3.70;;
6207;SDS011;3137;51.550;7.060;2023-07-29T00:16:59;4.33;;;4.03;;
6207;SDS011;3137;51.550;7.060;2023-07-29T00:19:26;3.73;;;3.63;;
6207;SDS011;3137;51.550;7.060;2023-07-29T00:21:54;6.13;;;4.83;;
6207;SDS011;3137;51.550;7.060;2023-07-29T00:24:21;8.53;;;6.20;;
6207;SDS011;3137;51.550;7.060;2023-07-29T00:26:47;7.50;;;6.53;;
6207;SDS011;3137;51.550;7.060;2023-07-29T00:29:14;12.47;;;5.90;;
6207;SDS011;3137;51.550;7.060;2023-07-29T00:31:40;7.80;;;6.87;;
6207;SDS011;3137;51.550;7.060;2023-07-29T00:34:06;9.37;;;5.90;;
6207;SDS011;3137;51.550;7.060;2023-07-29T00:36:34;6.00;;;5.63;;
6207;SDS011;3137;51.550;7.060;2023-07-29T00:39:01;8.90;;;5.63;;
6207;SDS011;3137;51.550;7.060;2023-07-29T00:41:28;6.53;;;5.40;;
6207;SDS011;3137;51.550;7.060;2023-07-29T00:43:54;5.93;;;5.33;;
6207;SDS011;3137;51.550;7.060;2023-07-29T00:46:21;5.60;;;5.40;;
6207;SDS011;3137;51.550;7.060;2023-07-29T00:48:48;4.70;;;4.50;;
6207;SDS011;3137;51.550;7.060;2023-07-29T00:51:15;4.60;;;4.60;;
6207;SDS011;3137;51.550;7.060;2023-07-29T00:53:41;5.23;;;5.03;;
6207;SDS011;3137;51.550;7.060;2023-07-29T00:56:08;4.87;;;4.60;;
6207;SDS011;3137;51.550;7.060;2023-07-29T00:58:37;4.50;;;4.40;;
6207;SDS011;3137;51.550;7.060;2023-07-29T01:01:04;3.53;;;3.53;;
6207;SDS011;3137;51.550;7.060;2023-07-29T01:03:31;4.47;;;4.37;;
6207;SDS011;3137;51.550;7.060;2023-07-29T01:06:01;6.07;;;5.77;;
6207;SDS011;3137;51.550;7.060;2023-07-29T01:08:42;6.90;;;6.30;;
6207;SDS011;3137;51.550;7.060;2023-07-29T01:14:25;6.47;;;6.13;;
6207;SDS011;3137;51.550;7.060;2023-07-29T01:17:00;5.67;;;5.27;;
6207;SDS011;3137;51.550;7.060;2023-07-29T01:22:08;4.73;;;4.43;;
6207;SDS011;3137;51.550;7.060;2023-07-29T01:24:36;5.83;;;5.60;;
6207;SDS011;3137;51.550;7.060;2023-07-29T01:27:02;5.67;;;5.47;;
6207;SDS011;3137;51.550;7.060;2023-07-29T01:29:31;5.17;;;5.07;;
6207;SDS011;3137;51.550;7.060;2023-07-29T01:32:00;4.80;;;4.70;;
6207;SDS011;3137;51.550;7.060;2023-07-29T01:34:35;8.73;;;6.10;;
6207;SDS011;3137;51.550;7.060;2023-07-29T01:37:11;5.30;;;5.20;;
6207;SDS011;3137;51.550;7.060;2023-07-29T01:39:44;6.13;;;5.63;;
6207;SDS011;3137;51.550;7.060;2023-07-29T01:42:12;5.20;;;4.70;;
6207;SDS011;3137;51.550;7.060;2023-07-29T01:44:38;4.50;;;4.30;;
6207;SDS011;3137;51.550;7.060;2023-07-29T01:47:06;4.93;;;4.83;;
6207;SDS011;3137;51.550;7.060;2023-07-29T01:49:33;5.07;;;4.97;;
6207;SDS011;3137;51.550;7.060;2023-07-29T01:52:00;4.60;;;4.50;;
6207;SDS011;3137;51.550;7.060;2023-07-29T01:54:26;4.87;;;4.77;;
6207;SDS011;3137;51.550;7.060;2023-07-29T01:56:53;5.23;;;5.13;;
6207;SDS011;3137;51.550;7.060;2023-07-29T01:59:19;3.37;;;3.27;;
6207;SDS011;3137;51.550;7.060;2023-07-29T02:01:46;3.97;;;3.67;;
6207;SDS011;3137;51.550;7.060;2023-07-29T02:04:12;3.93;;;3.83;;
6207;SDS011;3137;51.550;7.060;2023-07-29T02:06:39;3.70;;;3.70;;
6207;SDS011;3137;51.550;7.060;2023-07-29T02:09:06;4.40;;;4.10;;
6207;SDS011;3137;51.550;7.060;2023-07-29T02:11:33;4.57;;;4.33;;
6207;SDS011;3137;51.550;7.060;2023-07-29T02:13:59;3.57;;;3.57;;
6207;SDS011;3137;51.550;7.060;2023-07-29T02:16:26;4.27;;;4.27;;
6207;SDS011;3137;51.550;7.060;2023-07-29T02:18:52;3.27;;;3.17;;
6207;SDS011;3137;51.550;7.060;2023-07-29T02:21:22;4.57;;;4.33;;
6207;SDS011;3137;51.550;7.060;2023-07-29T02:23:48;4.80;;;4.33;;
6207;SDS011;3137;51.550;7.060;2023-07-29T02:26:15;3.30;;;3.20;;
6207;SDS011;3137;51.550;7.060;2023-07-29T02:28:42;4.73;;;4.60;;
6207;SDS011;3137;51.550;7.060;2023-07-29T02:31:11;4.10;;;4.00;;
6207;SDS011;3137;51.550;7.060;2023-07-29T02:33:44;4.90;;;4.33;;
6207;SDS011;3137;51.550;7.060;2023-07-29T02:36:11;5.23;;;4.83;;
6207;SDS011;3137;51.550;7.060;2023-07-29T02:38:39;4.43;;;4.33;;
6207;SDS011;3137;51.550;7.060;2023-07-29T02:41:09;5.10;;;4.70;;
6207;SDS011;3137;51.550;7.060;2023-07-29T02:43:38;5.10;;;4.67;;
6207;SDS011;3137;51.550;7.060;2023-07-29T02:46:05;4.13;;;4.13;;
6207;SDS011;3137;51.550;7.060;2023-07-29T02:48:31;4.40;;;4.10;;
6207;SDS011;3137;51.550;7.060;2023-07-29T02:50:58;4.30;;;4.30;;
6207;SDS011;3137;51.550;7.060;2023-07-29T02:53:24;3.47;;;3.47;;
6207;SDS011;3137;51.550;7.060;2023-07-29T02:55:51;3.93;;;3.83;;
6207;SDS011;3137;51.550;7.060;2023-07-29T02:58:19;4.33;;;4.30;;
6207;SDS011;3137;51.550;7.060;2023-07-29T03:00:45;3.83;;;3.83;;
6207;SDS011;3137;51.550;7.060;2023-07-29T03:03:14;4.47;;;4.37;;
6207;SDS011;3137;51.550;7.060;2023-07-29T03:05:41;4.53;;;4.20;;
6207;SDS011;3137;51.550;7.060;2023-07-29T03:08:07;4.00;;;4.00;;
6207;SDS011;3137;51.550;7.060;2023-07-29T03:10:35;5.00;;;4.87;;
6207;SDS011;3137;51.550;7.060;2023-07-29T03:13:02;3.40;;;3.40;;
6207;SDS011;3137;51.550;7.060;2023-07-29T03:15:29;5.53;;;3.70;;
6207;SDS011;3137;51.550;7.060;2023-07-29T03:17:55;3.70;;;3.70;;
6207;SDS011;3137;51.550;7.060;2023-07-29T03:20:22;4.17;;;3.97;;
6207;SDS011;3137;51.550;7.060;2023-07-29T03:22:49;4.73;;;4.63;;
6207;SDS011;3137;51.550;7.060;2023-07-29T03:25:15;5.10;;;4.67;;
6207;SDS011;3137;51.550;7.060;2023-07-29T03:27:42;4.97;;;4.97;;
6207;SDS011;3137;51.550;7.060;2023-07-29T03:30:08;5.33;;;4.90;;
6207;SDS011;3137;51.550;7.060;2023-07-29T03:32:35;6.23;;;4.50;;
6207;SDS011;3137;51.550;7.060;2023-07-29T03:35:04;5.60;;;4.20;;
6207;SDS011;3137;51.550;7.060;2023-07-29T03:37:30;5.37;;;4.97;;
6207;SDS011;3137;51.550;7.060;2023-07-29T03:39:57;5.97;;;5.30;;
6207;SDS011;3137;51.550;7.060;2023-07-29T03:42:24;6.17;;;5.77;;
6207;SDS011;3137;51.550;7.060;2023-07-29T03:44:51;8.37;;;6.33;;
6207;SDS011;3137;51.550;7.060;2023-07-29T03:47:17;6.60;;;6.10;;
6207;SDS011;3137;51.550;7.060;2023-07-29T03:49:44;6.27;;;6.17;;
6207;SDS011;3137;51.550;7.060;2023-07-29T03:52:11;7.53;;;6.60;;
6207;SDS011;3137;51.550;7.060;2023-07-29T03:54:38;6.83;;;6.73;;
6207;SDS011;3137;51.550;7.060;2023-07-29T03:57:04;6.63;;;6.27;;
6207;SDS011;3137;51.550;7.060;2023-07-29T03:59:31;6.70;;;6.33;;
6207;SDS011;3137;51.550;7.060;2023-07-29T04:01:58;6.77;;;6.40;;
6207;SDS011;3137;51.550;7.060;2023-07-29T04:04:24;18.53;;;8.30;;
6207;SDS011;3137;51.550;7.060;2023-07-29T04:06:51;13.97;;;5.87;;
6207;SDS011;3137;51.550;7.060;2023-07-29T04:09:18;8.63;;;5.67;;
6207;SDS011;3137;51.550;7.060;2023-07-29T04:11:44;7.37;;;6.60;;
6207;SDS011;3137;51.550;7.060;2023-07-29T04:14:11;7.17;;;6.53;;
6207;SDS011;3137;51.550;7.060;2023-07-29T04:16:37;7.33;;;5.63;;
6207;SDS011;3137;51.550;7.060;2023-07-29T04:19:04;7.33;;;6.43;;
6207;SDS011;3137;51.550;7.060;2023-07-29T04:21:31;5.93;;;5.40;;
6207;SDS011;3137;51.550;7.060;2023-07-29T04:23:57;6.90;;;6.33;;
6207;SDS011;3137;51.550;7.060;2023-07-29T04:26:24;5.53;;;5.43;;
6207;SDS011;3137;51.550;7.060;2023-07-29T04:28:50;6.90;;;6.70;;
6207;SDS011;3137;51.550;7.060;2023-07-29T04:31:17;5.97;;;5.87;;
6207;SDS011;3137;51.550;7.060;2023-07-29T04:33:43;5.50;;;5.10;;
6207;SDS011;3137;51.550;7.060;2023-07-29T04:36:10;5.57;;;5.47;;
6207;SDS011;3137;51.550;7.060;2023-07-29T04:38:36;5.73;;;5.40;;
6207;SDS011;3137;51.550;7.060;2023-07-29T04:41:03;5.70;;;5.40;;
6207;SDS011;3137;51.550;7.060;2023-07-29T04:43:33;4.80;;;4.53;;
6207;SDS011;3137;51.550;7.060;2023-07-29T04:45:59;6.50;;;4.67;;
6207;SDS011;3137;51.550;7.060;2023-07-29T04:48:26;5.50;;;5.23;;
6207;SDS011;3137;51.550;7.060;2023-07-29T04:50:53;4.93;;;4.63;;
6207;SDS011;3137;51.550;7.060;2023-07-29T04:53:19;4.77;;;4.27;;
6207;SDS011;3137;51.550;7.060;2023-07-29T04:55:46;4.43;;;3.73;;
6207;SDS011;3137;51.550;7.060;2023-07-29T04:58:12;3.13;;;3.00;;
6207;SDS011;3137;51.550;7.060;2023-07-29T05:00:39;4.60;;;4.33;;
6207;SDS011;3137;51.550;7.060;2023-07-29T05:03:05;13.57;;;3.80;;
6207;SDS011;3137;51.550;7.060;2023-07-29T05:05:33;14.63;;;4.67;;
6207;SDS011;3137;51.550;7.060;2023-07-29T05:08:00;9.70;;;4.80;;
6207;SDS011;3137;51.550;7.060;2023-07-29T05:10:26;6.23;;;5.07;;
6207;SDS011;3137;51.550;7.060;2023-07-29T05:12:53;5.00;;;4.53;;
6207;SDS011;3137;51.550;7.060;2023-07-29T05:15:19;5.40;;;4.50;;
6207;SDS011;3137;51.550;7.060;2023-07-29T05:17:46;5.17;;;4.67;;
6207;SDS011;3137;51.550;7.060;2023-07-29T05:20:12;5.30;;;5.00;;
6207;SDS011;3137;51.550;7.060;2023-07-29T05:22:39;5.47;;;5.07;;
6207;SDS011;3137;51.550;7.060;2023-07-29T05:25:05;5.90;;;5.40;;
6207;SDS011;3137;51.550;7.060;2023-07-29T05:27:32;5.37;;;5.17;;
6207;SDS011;3137;51.550;7.060;2023-07-29T05:29:59;4.97;;;4.87;;
6207;SDS011;3137;51.550;7.060;2023-07-29T05:32:25;5.07;;;4.77;;
6207;SDS011;3137;51.550;7.060;2023-07-29T05:34:51;4.50;;;4.50;;
6207;SDS011;3137;51.550;7.060;2023-07-29T05:37:19;4.40;;;4.30;;
6207;SDS011;3137;51.550;7.060;2023-07-29T05:39:45;4.47;;;4.07;;
6207;SDS011;3137;51.550;7.060;2023-07-29T05:42:12;3.43;;;3.43;;
6207;SDS011;3137;51.550;7.060;2023-07-29T05:44:38;3.77;;;3.60;;
6207;SDS011;3137;51.550;7.060;2023-07-29T05:47:05;4.30;;;4.17;;
6207;SDS011;3137;51.550;7.060;2023-07-29T05:49:32;3.67;;;3.57;;
6207;SDS011;3137;51.550;7.060;2023-07-29T05:51:59;3.30;;;3.20;;
6207;SDS011;3137;51.550;7.060;2023-07-29T05:54:25;4.80;;;2.77;;
6207;SDS011;3137;51.550;7.060;2023-07-29T05:56:52;3.00;;;2.87;;
6207;SDS011;3137;51.550;7.060;2023-07-29T05:59:18;3.23;;;3.13;;
6207;SDS011;3137;51.550;7.060;2023-07-29T06:01:45;5.60;;;3.20;;
6207;SDS011;3137;51.550;7.060;2023-07-29T06:04:12;2.77;;;2.77;;
6207;SDS011;3137;51.550;7.060;2023-07-29T06:06:38;4.20;;;2.53;;
6207;SDS011;3137;51.550;7.060;2023-07-29T06:09:05;4.77;;;2.60;;
6207;SDS011;3137;51.550;7.060;2023-07-29T06:11:31;2.80;;;2.80;;
6207;SDS011;3137;51.550;7.060;2023-07-29T06:13:58;2.43;;;2.43;;
6207;SDS011;3137;51.550;7.060;2023-07-29T06:16:24;2.83;;;2.83;;
6207;SDS011;3137;51.550;7.060;2023-07-29T06:18:51;4.83;;;3.20;;
6207;SDS011;3137;51.550;7.060;2023-07-29T06:21:19;4.13;;;3.60;;
6207;SDS011;3137;51.550;7.060;2023-07-29T06:23:46;16.07;;;2.90;;
6207;SDS011;3137;51.550;7.060;2023-07-29T06:26:12;2.93;;;2.93;;
6207;SDS011;3137;51.550;7.060;2023-07-29T06:28:39;3.43;;;3.27;;
6207;SDS011;3137;51.550;7.060;2023-07-29T06:31:05;2.87;;;2.87;;
6207;SDS011;3137;51.550;7.060;2023-07-29T06:33:32;3.87;;;3.77;;
6207;SDS011;3137;51.550;7.060;2023-07-29T06:35:58;9.10;;;3.37;;
6207;SDS011;3137;51.550;7.060;2023-07-29T06:38:25;3.17;;;2.90;;
6207;SDS011;3137;51.550;7.060;2023-07-29T06:40:51;3.50;;;3.30;;
6207;SDS011;3137;51.550;7.060;2023-07-29T06:43:18;4.13;;;3.83;;
6207;SDS011;3137;51.550;7.060;2023-07-29T06:45:45;4.47;;;3.73;;
6207;SDS011;3137;51.550;7.060;2023-07-29T06:48:11;4.30;;;4.00;;
6207;SDS011;3137;51.550;7.060;2023-07-29T06:50:38;3.17;;;2.97;;
6207;SDS011;3137;51.550;7.060;2023-07-29T06:53:04;8.47;;;4.27;;
6207;SDS011;3137;51.550;7.060;2023-07-29T06:55:31;2.90;;;2.90;;
6207;SDS011;3137;51.550;7.060;2023-07-29T06:57:57;12.17;;;3.67;;
6207;SDS011;3137;51.550;7.060;2023-07-29T07:00:24;5.60;;;3.60;;
6207;SDS011;3137;51.550;7.060;2023-07-29T07:02:50;3.97;;;3.77;;
6207;SDS011;3137;51.550;7.060;2023-07-29T07:05:17;3.03;;;3.03;;
6207;SDS011;3137;51.550;7.060;2023-07-29T07:07:43;4.03;;;3.57;;
6207;SDS011;3137;51.550;7.060;2023-07-29T07:10:10;3.93;;;3.70;;
6207;SDS011;3137;51.550;7.060;2023-07-29T07:12:36;5.70;;;3.73;;
6207;SDS011;3137;51.550;7.060;2023-07-29T07:15:03;3.17;;;3.17;;
6207;SDS011;3137;51.550;7.060;2023-07-29T07:17:30;3.57;;;3.57;;
6207;SDS011;3137;51.550;7.060;2023-07-29T07:19:56;2.83;;;2.80;;
6207;SDS011;3137;51.550;7.060;2023-07-29T07:22:23;3.47;;;3.20;;
6207;SDS011;3137;51.550;7.060;2023-07-29T07:24:50;3.60;;;3.60;;
6207;SDS011;3137;51.550;7.060;2023-07-29T07:27:16;7.40;;;3.77;;
6207;SDS011;3137;51.550;7.060;2023-07-29T07:29:43;4.03;;;3.80;;
6207;SDS011;3137;51.550;7.060;2023-07-29T07:32:09;3.73;;;3.40;;
6207;SDS011;3137;51.550;7.060;2023-07-29T07:34:36;9.47;;;3.27;;
6207;SDS011;3137;51.550;7.060;2023-07-29T07:37:02;2.90;;;2.90;;
6207;SDS011;3137;51.550;7.060;2023-07-29T07:39:31;3.77;;;3.53;;
6207;SDS011;3137;51.550;7.060;2023-07-29T07:41:58;3.37;;;3.27;;
6207;SDS011;3137;51.550;7.060;2023-07-29T07:44:24;3.07;;;2.60;;
6207;SDS011;3137;51.550;7.060;2023-07-29T07:46:52;4.83;;;2.67;;
6207;SDS011;3137;51.550;7.060;2023-07-29T07:49:19;2.73;;;2.63;;
6207;SDS011;3137;51.550;7.060;2023-07-29T07:51:46;4.00;;;2.90;;
6207;SDS011;3137;51.550;7.060;2023-07-29T07:54:12;2.50;;;2.50;;
6207;SDS011;3137;51.550;7.060;2023-07-29T07:56:39;2.20;;;2.20;;
6207;SDS011;3137;51.550;7.060;2023-07-29T07:59:06;3.10;;;2.90;;
6207;SDS011;3137;51.550;7.060;2023-07-29T08:01:35;2.80;;;2.80;;
6207;SDS011;3137;51.550;7.060;2023-07-29T08:04:03;3.00;;;2.50;;
6207;SDS011;3137;51.550;7.060;2023-07-29T08:06:30;2.87;;;2.17;;
6207;SDS011;3137;51.550;7.060;2023-07-29T08:08:57;6.97;;;2.63;;
6207;SDS011;3137;51.550;7.060;2023-07-29T08:11:24;2.20;;;2.10;;
6207;SDS011;3137;51.550;7.060;2023-07-29T08:13:51;2.67;;;2.63;;
6207;SDS011;3137;51.550;7.060;2023-07-29T08:16:18;2.30;;;2.30;;
6207;SDS011;3137;51.550;7.060;2023-07-29T08:18:44;2.40;;;2.37;;
6207;SDS011;3137;51.550;7.060;2023-07-29T08:21:11;2.10;;;2.10;;
6207;SDS011;3137;51.550;7.060;2023-07-29T08:23:37;7.20;;;2.43;;
6207;SDS011;3137;51.550;7.060;2023-07-29T08:26:04;2.13;;;2.07;;
6207;SDS011;3137;51.550;7.060;2023-07-29T08:28:34;2.13;;;2.13;;
6207;SDS011;3137;51.550;7.060;2023-07-29T08:31:02;2.20;;;2.20;;
6207;SDS011;3137;51.550;7.060;2023-07-29T08:33:29;2.70;;;2.63;;
6207;SDS011;3137;51.550;7.060;2023-07-29T08:35:56;5.20;;;2.23;;
6207;SDS011;3137;51.550;7.060;2023-07-29T08:38:23;1.70;;;1.70;;
6207;SDS011;3137;51.550;7.060;2023-07-29T08:40:58;2.87;;;2.67;;
6207;SDS011;3137;51.550;7.060;2023-07-29T08:43:31;4.50;;;2.07;;
6207;SDS011;3137;51.550;7.060;2023-07-29T08:45:59;2.07;;;1.67;;
6207;SDS011;3137;51.550;7.060;2023-07-29T08:48:44;1.90;;;1.90;;
6207;SDS011;3137;51.550;7.060;2023-07-29T08:51:11;2.27;;;2.27;;
6207;SDS011;3137;51.550;7.060;2023-07-29T08:53:38;1.90;;;1.90;;
6207;SDS011;3137;51.550;7.060;2023-07-29T08:56:06;2.37;;;2.37;;
6207;SDS011;3137;51.550;7.060;2023-07-29T08:58:33;2.43;;;2.20;;
6207;SDS011;3137;51.550;7.060;2023-07-29T09:01:01;2.03;;;2.03;;
6207;SDS011;3137;51.550;7.060;2023-07-29T09:03:27;3.30;;;1.93;;
6207;SDS011;3137;51.550;7.060;2023-07-29T09:05:54;2.37;;;2.27;;
6207;SDS011;3137;51.550;7.060;2023-07-29T09:08:24;2.67;;;2.67;;
6207;SDS011;3137;51.550;7.060;2023-07-29T09:10:52;2.37;;;2.37;;
6207;SDS011;3137;51.550;7.060;2023-07-29T09:13:19;2.27;;;2.07;;
6207;SDS011;3137;51.550;7.060;2023-07-29T09:15:46;2.00;;;2.00;;
6207;SDS011;3137;51.550;7.060;2023-07-29T09:18:16;2.43;;;2.43;;
6207;SDS011;3137;51.550;7.060;2023-07-29T09:20:47;2.40;;;2.40;;
6207;SDS011;3137;51.550;7.060;2023-07-29T09:23:15;1.73;;;1.73;;
6207;SDS011;3137;51.550;7.060;2023-07-29T09:25:42;2.30;;;2.20;;
6207;SDS011;3137;51.550;7.060;2023-07-29T09:28:12;2.07;;;2.07;;
6207;SDS011;3137;51.550;7.060;2023-07-29T09:30:41;2.23;;;2.23;;
6207;SDS011;3137;51.550;7.060;2023-07-29T09:33:09;2.90;;;2.80;;
6207;SDS011;3137;51.550;7.060;2023-07-29T09:35:36;2.27;;;2.17;;
6207;SDS011;3137;51.550;7.060;2023-07-29T09:38:04;3.70;;;1.73;;
6207;SDS011;3137;51.550;7.060;2023-07-29T09:40:38;2.07;;;2.07;;
6207;SDS011;3137;51.550;7.060;2023-07-29T09:43:06;2.10;;;2.10;;
6207;SDS011;3137;51.550;7.060;2023-07-29T09:45:35;2.10;;;2.10;;
6207;SDS011;3137;51.550;7.060;2023-07-29T09:48:04;2.20;;;2.20;;
6207;SDS011;3137;51.550;7.060;2023-07-29T09:50:35;1.87;;;1.77;;
6207;SDS011;3137;51.550;7.060;2023-07-29T09:53:02;2.07;;;2.07;;
6207;SDS011;3137;51.550;7.060;2023-07-29T09:55:32;2.67;;;2.67;;
6207;SDS011;3137;51.550;7.060;2023-07-29T09:58:00;2.23;;;2.23;;
6207;SDS011;3137;51.550;7.060;2023-07-29T10:00:29;2.23;;;2.23;;
6207;SDS011;3137;51.550;7.060;2023-07-29T10:02:57;2.47;;;2.47;;
6207;SDS011;3137;51.550;7.060;2023-07-29T10:05:25;2.20;;;2.20;;
6207;SDS011;3137;51.550;7.060;2023-07-29T10:07:53;2.60;;;2.60;;
6207;SDS011;3137;51.550;7.060;2023-07-29T10:10:21;2.47;;;2.47;;
6207;SDS011;3137;51.550;7.060;2023-07-29T10:12:47;2.47;;;2.47;;
6207;SDS011;3137;51.550;7.060;2023-07-29T10:15:16;3.27;;;3.13;;
6207;SDS011;3137;51.550;7.060;2023-07-29T10:17:43;2.77;;;2.77;;
6207;SDS011;3137;51.550;7.060;2023-07-29T10:20:15;2.40;;;2.40;;
6207;SDS011;3137;51.550;7.060;2023-07-29T10:22:42;3.23;;;3.13;;
6207;SDS011;3137;51.550;7.060;2023-07-29T10:25:12;3.67;;;3.37;;
6207;SDS011;3137;51.550;7.060;2023-07-29T10:30:13;3.80;;;3.80;;
6207;SDS011;3137;51.550;7.060;2023-07-29T10:32:43;4.37;;;4.37;;
6207;SDS011;3137;51.550;7.060;2023-07-29T10:35:12;5.33;;;4.70;;
6207;SDS011;3137;51.550;7.060;2023-07-29T10:37:39;6.27;;;5.90;;
6207;SDS011;3137;51.550;7.060;2023-07-29T10:40:07;5.97;;;5.67;;
6207;SDS011;3137;51.550;7.060;2023-07-29T10:42:35;4.47;;;4.27;;
6207;SDS011;3137;51.550;7.060;2023-07-29T10:45:25;4.90;;;4.90;;
6207;SDS011;3137;51.550;7.060;2023-07-29T10:47:51;4.60;;;4.50;;
6207;SDS011;3137;51.550;7.060;2023-07-29T10:50:19;4.23;;;4.13;;
6207;SDS011;3137;51.550;7.060;2023-07-29T10:52:50;5.17;;;4.97;;
6207;SDS011;3137;51.550;7.060;2023-07-29T10:58:06;3.80;;;3.53;;
6207;SDS011;3137;51.550;7.060;2023-07-29T11:00:43;3.53;;;3.53;;
6207;SDS011;3137;51.550;7.060;2023-07-29T11:03:12;3.50;;;3.20;;
6207;SDS011;3137;51.550;7.060;2023-07-29T11:05:43;3.03;;;3.03;;
6207;SDS011;3137;51.550;7.060;2023-07-29T11:08:22;2.57;;;2.47;;
6207;SDS011;3137;51.550;7.060;2023-07-29T11:11:05;3.00;;;3.00;;
6207;SDS011;3137;51.550;7.060;2023-07-29T11:13:34;3.03;;;2.67;;
6207;SDS011;3137;51.550;7.060;2023-07-29T11:16:02;2.90;;;2.90;;
6207;SDS011;3137;51.550;7.060;2023-07-29T11:18:30;4.23;;;2.60;;
6207;SDS011;3137;51.550;7.060;2023-07-29T11:20:58;5.60;;;2.57;;
6207;SDS011;3137;51.550;7.060;2023-07-29T11:23:34;2.57;;;2.37;;
6207;SDS011;3137;51.550;7.060;2023-07-29T11:26:03;2.42;;;2.42;;
6207;SDS011;3137;51.550;7.060;2023-07-29T11:28:30;2.72;;;2.72;;
6207;SDS011;3137;51.550;7.060;2023-07-29T11:30:57;3.25;;;2.95;;
6207;SDS011;3137;51.550;7.060;2023-07-29T11:33:25;2.97;;;2.88;;
6207;SDS011;3137;51.550;7.060;2023-07-29T11:35:54;3.80;;;3.45;;
6207;SDS011;3137;51.550;7.060;2023-07-29T11:38:26;4.07;;;3.80;;
6207;SDS011;3137;51.550;7.060;2023-07-29T11:40:58;3.60;;;3.50;;
6207;SDS011;3137;51.550;7.060;2023-07-29T11:43:26;3.17;;;3.17;;
6207;SDS011;3137;51.550;7.060;2023-07-29T11:45:53;3.33;;;3.23;;
6207;SDS011;3137;51.550;7.060;2023-07-29T11:48:26;3.65;;;3.58;;
6207;SDS011;3137;51.550;7.060;2023-07-29T11:50:53;2.50;;;2.50;;
6207;SDS011;3137;51.550;7.060;2023-07-29T11:53:21;4.00;;;2.90;;
6207;SDS011;3137;51.550;7.060;2023-07-29T11:55:51;2.60;;;2.60;;
6207;SDS011;3137;51.550;7.060;2023-07-29T11:58:20;3.28;;;3.08;;
6207;SDS011;3137;51.550;7.060;2023-07-29T12:00:46;2.50;;;2.40;;
6207;SDS011;3137;51.550;7.060;2023-07-29T12:03:13;3.60;;;2.78;;
6207;SDS011;3137;51.550;7.060;2023-07-29T12:05:41;2.38;;;2.38;;
6207;SDS011;3137;51.550;7.060;2023-07-29T12:08:08;2.15;;;2.15;;
6207;SDS011;3137;51.550;7.060;2023-07-29T12:10:35;3.50;;;2.85;;
6207;SDS011;3137;51.550;7.060;2023-07-29T12:13:02;4.03;;;2.85;;
6207;SDS011;3137;51.550;7.060;2023-07-29T12:15:29;2.88;;;2.83;;
6207;SDS011;3137;51.550;7.060;2023-07-29T12:17:56;2.03;;;2.03;;
6207;SDS011;3137;51.550;7.060;2023-07-29T12:20:24;2.28;;;2.28;;
6207;SDS011;3137;51.550;7.060;2023-07-29T12:23:01;2.95;;;2.70;;
6207;SDS011;3137;51.550;7.060;2023-07-29T12:25:28;2.20;;;2.10;;
6207;SDS011;3137;51.550;7.060;2023-07-29T12:27:56;2.63;;;2.63;;
6207;SDS011;3137;51.550;7.060;2023-07-29T12:30:23;3.38;;;3.08;;
6207;SDS011;3137;51.550;7.060;2023-07-29T12:32:51;2.10;;;2.00;;
6207;SDS011;3137;51.550;7.060;2023-07-29T12:35:17;2.97;;;2.88;;
6207;SDS011;3137;51.550;7.060;2023-07-29T12:37:44;3.10;;;3.10;;
6207;SDS011;3137;51.550;7.060;2023-07-29T12:40:20;2.97;;;2.97;;
6207;SDS011;3137;51.550;7.060;2023-07-29T12:42:51;5.35;;;2.88;;
6207;SDS011;3137;51.550;7.060;2023-07-29T12:45:18;4.43;;;3.33;;
6207;SDS011;3137;51.550;7.060;2023-07-29T12:47:45;3.20;;;2.97;;
6207;SDS011;3137;51.550;7.060;2023-07-29T12:50:11;6.55;;;3.60;;
6207;SDS011;3137;51.550;7.060;2023-07-29T12:52:38;6.53;;;2.95;;
6207;SDS011;3137;51.550;7.060;2023-07-29T12:55:05;3.90;;;2.50;;
6207;SDS011;3137;51.550;7.060;2023-07-29T12:57:32;5.68;;;2.45;;
6207;SDS011;3137;51.550;7.060;2023-07-29T12:59:58;2.22;;;2.22;;
6207;SDS011;3137;51.550;7.060;2023-07-29T13:02:25;2.47;;;2.38;;
6207;SDS011;3137;51.550;7.060;2023-07-29T13:04:51;1.98;;;1.98;;
6207;SDS011;3137;51.550;7.060;2023-07-29T13:07:18;2.72;;;2.63;;
6207;SDS011;3137;51.550;7.060;2023-07-29T13:09:44;7.13;;;4.63;;
6207;SDS011;3137;51.550;7.060;2023-07-29T13:12:10;2.90;;;2.83;;
6207;SDS011;3137;51.550;7.060;2023-07-29T13:14:37;3.33;;;2.80;;
6207;SDS011;3137;51.550;7.060;2023-07-29T13:17:04;3.30;;;3.13;;
6207;SDS011;3137;51.550;7.060;2023-07-29T13:19:30;2.45;;;2.45;;
6207;SDS011;3137;51.550;7.060;2023-07-29T13:21:57;2.65;;;1.88;;
6207;SDS011;3137;51.550;7.060;2023-07-29T13:24:24;2.67;;;2.67;;
6207;SDS011;3137;51.550;7.060;2023-07-29T13:26:50;2.33;;;2.33;;
6207;SDS011;3137;51.550;7.060;2023-07-29T13:29:17;2.92;;;2.83;;
6207;SDS011;3137;51.550;7.060;2023-07-29T13:31:43;3.33;;;3.22;;
6207;SDS011;3137;51.550;7.060;2023-07-29T13:34:09;4.20;;;2.50;;
6207;SDS011;3137;51.550;7.060;2023-07-29T13:36:36;3.00;;;2.80;;
6207;SDS011;3137;51.550;7.060;2023-07-29T13:39:03;7.43;;;2.85;;
6207;SDS011;3137;51.550;7.060;2023-07-29T13:41:29;3.10;;;3.10;;
6207;SDS011;3137;51.550;7.060;2023-07-29T13:43:56;3.28;;;3.17;;
6207;SDS011;3137;51.550;7.060;2023-07-29T13:46:22;8.32;;;2.92;;
6207;SDS011;3137;51.550;7.060;2023-07-29T13:48:48;2.60;;;2.60;;
6207;SDS011;3137;51.550;7.060;2023-07-29T13:51:15;2.80;;;2.80;;
6207;SDS011;3137;51.550;7.060;2023-07-29T13:53:41;2.30;;;2.30;;
6207;SDS011;3137;51.550;7.060;2023-07-29T13:56:08;4.30;;;3.17;;
6207;SDS011;3137;51.550;7.060;2023-07-29T13:58:34;3.38;;;3.17;;
6207;SDS011;3137;51.550;7.060;2023-07-29T14:01:00;5.68;;;2.80;;
6207;SDS011;3137;51.550;7.060;2023-07-29T14:03:27;3.37;;;3.37;;
6207;SDS011;3137;51.550;7.060;2023-07-29T14:05:53;3.23;;;3.13;;
6207;SDS011;3137;51.550;7.060;2023-07-29T14:08:20;3.20;;;3.20;;
6207;SDS011;3137;51.550;7.060;2023-07-29T14:10:48;3.33;;;3.33;;
6207;SDS011;3137;51.550;7.060;2023-07-29T14:13:15;1.80;;;1.77;;
6207;SDS011;3137;51.550;7.060;2023-07-29T14:15:41;1.30;;;1.30;;
6207;SDS011;3137;51.550;7.060;2023-07-29T14:18:08;1.53;;;1.40;;
6207;SDS011;3137;51.550;7.060;2023-07-29T14:20:34;1.63;;;1.63;;
6207;SDS011;3137;51.550;7.060;2023-07-29T14:23:01;1.30;;;1.30;;
6207;SDS011;3137;51.550;7.060;2023-07-29T14:25:27;1.43;;;1.43;;
6207;SDS011;3137;51.550;7.060;2023-07-29T14:27:54;1.77;;;1.77;;
6207;SDS011;3137;51.550;7.060;2023-07-29T14:30:20;1.80;;;1.70;;
6207;SDS011;3137;51.550;7.060;2023-07-29T14:32:47;3.20;;;1.63;;
6207;SDS011;3137;51.550;7.060;2023-07-29T14:35:14;1.20;;;1.20;;
6207;SDS011;3137;51.550;7.060;2023-07-29T14:37:41;1.10;;;1.10;;
6207;SDS011;3137;51.550;7.060;2023-07-29T14:40:07;5.80;;;1.50;;
6207;SDS011;3137;51.550;7.060;2023-07-29T14:42:34;1.47;;;1.37;;
6207;SDS011;3137;51.550;7.060;2023-07-29T14:45:01;1.40;;;1.40;;
6207;SDS011;3137;51.550;7.060;2023-07-29T14:47:28;2.20;;;1.40;;
6207;SDS011;3137;51.550;7.060;2023-07-29T14:49:54;1.20;;;1.20;;
6207;SDS011;3137;51.550;7.060;2023-07-29T14:52:20;1.70;;;1.70;;
6207;SDS011;3137;51.550;7.060;2023-07-29T14:54:47;7.10;;;1.37;;
6207;SDS011;3137;51.550;7.060;2023-07-29T14:57:13;1.27;;;1.27;;
6207;SDS011;3137;51.550;7.060;2023-07-29T14:59:40;12.80;;;1.53;;
6207;SDS011;3137;51.550;7.060;2023-07-29T15:02:06;1.40;;;1.40;;
6207;SDS011;3137;51.550;7.060;2023-07-29T15:04:33;2.00;;;1.80;;
6207;SDS011;3137;51.550;7.060;2023-07-29T15:06:59;2.17;;;2.03;;
6207;SDS011;3137;51.550;7.060;2023-07-29T15:09:26;1.97;;;1.97;;
6207;SDS011;3137;51.550;7.060;2023-07-29T15:11:53;1.53;;;1.53;;
6207;SDS011;3137;51.550;7.060;2023-07-29T15:14:21;5.13;;;1.80;;
6207;SDS011;3137;51.550;7.060;2023-07-29T15:16:47;1.70;;;1.70;;
6207;SDS011;3137;51.550;7.060;2023-07-29T15:19:13;1.80;;;1.80;;
6207;SDS011;3137;51.550;7.060;2023-07-29T15:21:43;2.03;;;1.90;;
6207;SDS011;3137;51.550;7.060;2023-07-29T15:24:10;1.60;;;1.60;;
6207;SDS011;3137;51.550;7.060;2023-07-29T15:26:36;2.13;;;2.13;;
6207;SDS011;3137;51.550;7.060;2023-07-29T15:29:03;4.27;;;1.47;;